Time;durP1;ratioP1;P1;durP2;ratioP2;P2;SDS_P1;SDS_P2;PMS_P1;PMS_P2;Temp;Humidity;BMP_temperature;BMP_pressure;BME280_temperature;BME280_humidity;BME280_pressure;Samples;Min_cycle;Max_cycle;Signal;HPM_P1;HPM_P2
2023/09/14 00:01:07;;;;;;;8.98;5.05;;;17.80;99.90;;;;;;4945064;28;20031;-75
2023/09/14 00:03:33;;;;;;;7.20;5.20;;;17.80;99.90;;;;;;4945313;28;20039;-75
2023/09/14 00:05:58;;;;;;;6.47;5.22;;;17.80;99.90;;;;;;4948771;28;20023;-75
2023/09/14 00:08:27;;;;;;;5.70;4.32;;;17.80;99.90;;;;;;4948901;28;20026;-74
2023/09/14 00:10:55;;;;;;;6.40;5.00;;;17.70;99.90;;;;;;4945722;28;20023;-77
2023/09/14 00:13:21;;;;;;;8.80;5.10;;;17.70;99.90;;;;;;4943664;28;20422;-77
2023/09/14 00:15:46;;;;;;;7.07;4.70;;;17.70;99.90;;;;;;4949517;28;20035;-76
2023/09/14 00:18:12;;;;;;;7.82;5.05;;;17.70;99.90;;;;;;4951215;28;20076;-77
2023/09/14 00:20:37;;;;;;;7.75;5.63;;;17.70;99.90;;;;;;4948648;28;20413;-76
2023/09/14 00:23:03;;;;;;;6.80;4.65;;;17.70;99.90;;;;;;4940672;28;20043;-75
2023/09/14 00:25:29;;;;;;;17.30;5.13;;;17.70;99.90;;;;;;4941041;28;20632;-76
2023/09/14 00:27:54;;;;;;;6.47;4.70;;;17.80;99.90;;;;;;4960233;28;20054;-76
2023/09/14 00:30:21;;;;;;;6.80;5.13;;;17.70;99.90;;;;;;4961274;28;20375;-76
2023/09/14 00:32:49;;;;;;;7.55;5.13;;;17.70;99.90;;;;;;4959172;28;20035;-76
2023/09/14 00:35:15;;;;;;;6.45;4.85;;;17.80;99.90;;;;;;4949375;28;20389;-75
2023/09/14 00:37:42;;;;;;;6.18;4.97;;;17.80;99.90;;;;;;4946917;28;20036;-76
2023/09/14 00:40:09;;;;;;;9.93;5.47;;;17.80;99.90;;;;;;4947851;28;20090;-76
2023/09/14 00:42:44;;;;;;;10.00;5.10;;;17.80;99.90;;;;;;4942178;28;20090;-76
2023/09/14 00:45:15;;;;;;;9.27;5.18;;;17.80;99.90;;;;;;4956917;28;20023;-75
2023/09/14 00:47:47;;;;;;;8.18;4.90;;;17.80;99.90;;;;;;4945605;28;20063;-76
2023/09/14 00:50:17;;;;;;;7.10;5.50;;;17.70;99.90;;;;;;4946931;28;20146;-75
2023/09/14 00:52:54;;;;;;;9.20;5.45;;;17.70;99.90;;;;;;4946933;28;20108;-75
2023/09/14 00:55:20;;;;;;;12.55;5.32;;;17.70;99.90;;;;;;4942715;28;20051;-75
2023/09/14 00:57:50;;;;;;;8.05;5.03;;;17.70;99.90;;;;;;4946973;28;20492;-76
2023/09/14 01:00:17;;;;;;;7.57;5.75;;;17.70;99.90;;;;;;4943433;28;20027;-75
2023/09/14 01:02:43;;;;;;;10.18;5.35;;;17.70;99.90;;;;;;4957623;28;20026;-75
2023/09/14 01:05:11;;;;;;;9.95;6.35;;;17.70;99.90;;;;;;4949190;28;20062;-78
2023/09/14 01:07:36;;;;;;;8.75;5.80;;;17.70;99.90;;;;;;4955232;28;20030;-77
2023/09/14 01:10:04;;;;;;;8.63;5.90;;;17.70;99.90;;;;;;4946625;28;20082;-76
2023/09/14 01:12:32;;;;;;;6.50;5.28;;;17.70;99.90;;;;;;4945640;28;20035;-75
2023/09/14 01:15:07;;;;;;;8.43;6.28;;;17.70;99.90;;;;;;4946498;28;20031;-75
2023/09/14 01:18:01;;;;;;;8.35;6.15;;;17.70;99.90;;;;;;4945752;28;20031;-75
2023/09/14 01:20:48;;;;;;;8.48;5.60;;;17.70;99.90;;;;;;4940551;28;20036;-75
2023/09/14 01:23:17;;;;;;;9.82;5.45;;;17.70;99.90;;;;;;4945322;28;20035;-75
2023/09/14 01:25:46;;;;;;;9.30;5.85;;;17.70;99.90;;;;;;4949641;28;20062;-75
2023/09/14 01:28:13;;;;;;;8.45;5.60;;;17.70;99.90;;;;;;4948761;28;20118;-76
2023/09/14 01:30:39;;;;;;;11.65;6.28;;;17.70;99.90;;;;;;4947877;28;20031;-75
2023/09/14 01:33:10;;;;;;;9.10;6.07;;;17.70;99.90;;;;;;4946279;28;20494;-75
2023/09/14 01:35:40;;;;;;;10.88;6.18;;;17.70;99.90;;;;;;4948133;28;20106;-75
2023/09/14 01:38:06;;;;;;;10.50;7.03;;;17.70;99.90;;;;;;4947743;28;20614;-75
2023/09/14 01:40:34;;;;;;;7.50;5.90;;;17.70;99.90;;;;;;4949669;28;20121;-76
2023/09/14 01:43:01;;;;;;;10.43;6.28;;;17.70;99.90;;;;;;4946364;28;20046;-75
2023/09/14 01:45:27;;;;;;;11.85;6.68;;;17.70;99.90;;;;;;4925799;28;1123961;-75
2023/09/14 01:47:55;;;;;;;11.10;7.05;;;17.70;99.90;;;;;;4948709;28;20077;-76
2023/09/14 01:50:21;;;;;;;8.93;6.45;;;17.60;99.90;;;;;;4949810;28;20027;-76
2023/09/14 01:52:46;;;;;;;10.35;6.60;;;17.60;99.90;;;;;;4947514;28;20391;-76
2023/09/14 01:55:13;;;;;;;11.30;6.45;;;17.50;99.90;;;;;;4946808;28;20027;-76
2023/09/14 01:57:38;;;;;;;12.30;7.72;;;17.50;99.90;;;;;;4951250;28;20016;-76
2023/09/14 02:00:05;;;;;;;13.50;7.68;;;17.60;99.90;;;;;;4947166;28;20038;-76
2023/09/14 02:02:30;;;;;;;10.43;6.63;;;17.50;99.90;;;;;;4944473;28;20027;-75
2023/09/14 02:04:56;;;;;;;13.95;7.60;;;17.50;99.90;;;;;;4943963;28;20439;-75
2023/09/14 02:07:21;;;;;;;10.00;6.97;;;17.50;99.90;;;;;;4956994;28;20047;-76
2023/09/14 02:09:50;;;;;;;11.40;7.22;;;17.50;99.90;;;;;;4943308;28;20024;-76
2023/09/14 02:12:16;;;;;;;15.73;7.05;;;17.50;99.90;;;;;;4944764;28;20076;-75
2023/09/14 02:14:41;;;;;;;12.80;7.13;;;17.40;99.90;;;;;;4946790;28;20739;-75
2023/09/14 02:17:07;;;;;;;12.85;8.05;;;17.40;99.90;;;;;;4960839;28;20039;-75
2023/09/14 02:19:33;;;;;;;12.00;7.38;;;17.40;99.90;;;;;;4960728;28;20071;-76
2023/09/14 02:21:58;;;;;;;11.32;7.22;;;17.40;99.90;;;;;;4950161;28;20027;-75
2023/09/14 02:24:24;;;;;;;12.48;7.57;;;17.40;99.90;;;;;;4946433;28;20024;-75
2023/09/14 02:26:51;;;;;;;12.70;7.20;;;17.40;99.90;;;;;;4961352;28;20164;-76
2023/09/14 02:29:17;;;;;;;13.00;7.78;;;17.30;99.90;;;;;;4942256;28;20053;-76
2023/09/14 02:31:43;;;;;;;11.32;8.02;;;17.30;99.90;;;;;;4960264;28;20469;-76
2023/09/14 02:34:08;;;;;;;12.88;7.75;;;17.30;99.90;;;;;;4944678;28;20038;-76
2023/09/14 02:36:34;;;;;;;12.98;8.02;;;17.20;99.90;;;;;;4949522;28;20106;-76
2023/09/14 02:38:59;;;;;;;14.07;7.75;;;17.20;99.90;;;;;;4946481;28;20613;-76
2023/09/14 02:41:25;;;;;;;13.93;8.57;;;17.30;99.90;;;;;;4950381;28;20085;-76
2023/09/14 02:43:51;;;;;;;11.30;7.97;;;17.30;99.90;;;;;;4948383;28;21521;-75
2023/09/14 02:46:16;;;;;;;12.18;8.63;;;17.30;99.90;;;;;;4965775;23;20039;-75
2023/09/14 02:48:42;;;;;;;14.25;8.35;;;17.30;99.90;;;;;;4953752;28;20027;-77
2023/09/14 02:51:07;;;;;;;19.15;10.00;;;17.30;99.90;;;;;;4967049;28;20048;-77
2023/09/14 02:53:33;;;;;;;12.13;9.23;;;17.30;99.90;;;;;;4952523;28;20098;-76
2023/09/14 02:55:58;;;;;;;13.93;9.20;;;17.30;99.90;;;;;;4953949;28;20031;-77
2023/09/14 02:58:24;;;;;;;16.90;9.18;;;17.30;99.90;;;;;;4955093;28;20027;-76
2023/09/14 03:00:50;;;;;;;16.10;10.02;;;17.30;99.90;;;;;;4951654;28;20043;-76
2023/09/14 03:03:15;;;;;;;14.10;9.25;;;17.30;99.90;;;;;;4949228;28;20039;-76
2023/09/14 03:05:41;;;;;;;14.40;9.43;;;17.30;99.90;;;;;;4945103;28;20121;-76
2023/09/14 03:08:07;;;;;;;14.13;9.02;;;17.30;99.90;;;;;;4956820;28;20031;-76
2023/09/14 03:10:32;;;;;;;15.95;9.73;;;17.30;99.90;;;;;;4947929;28;20371;-75
2023/09/14 03:12:58;;;;;;;15.35;9.38;;;17.40;99.90;;;;;;4944619;28;20027;-76
2023/09/14 03:15:23;;;;;;;19.75;9.60;;;17.40;99.90;;;;;;4948793;28;20051;-75
2023/09/14 03:17:50;;;;;;;12.95;9.30;;;17.40;99.90;;;;;;4947521;28;20019;-75
2023/09/14 03:20:16;;;;;;;15.20;8.93;;;17.40;99.90;;;;;;4949870;28;20027;-75
2023/09/14 03:22:41;;;;;;;14.77;9.75;;;17.40;99.90;;;;;;4949934;28;20023;-76
2023/09/14 03:25:07;;;;;;;16.88;9.77;;;17.30;99.90;;;;;;4951164;28;20023;-75
2023/09/14 03:27:33;;;;;;;17.25;10.93;;;17.40;99.90;;;;;;4948497;28;20027;-76
2023/09/14 03:29:58;;;;;;;12.88;9.50;;;17.40;99.90;;;;;;4951611;28;20019;-76
2023/09/14 03:32:24;;;;;;;15.57;9.60;;;17.30;99.90;;;;;;4950968;28;20473;-76
2023/09/14 03:34:50;;;;;;;18.67;10.98;;;17.30;99.90;;;;;;4949594;28;20031;-76
2023/09/14 03:37:15;;;;;;;15.35;10.20;;;17.30;99.90;;;;;;4950393;28;20043;-76
2023/09/14 03:39:45;;;;;;;13.48;9.75;;;17.30;99.90;;;;;;4950922;28;20159;-76
2023/09/14 03:42:11;;;;;;;15.75;9.80;;;17.30;99.90;;;;;;4948470;28;20747;-76
2023/09/14 03:44:37;;;;;;;15.23;9.45;;;17.20;99.90;;;;;;4950528;28;20030;-76
2023/09/14 03:47:03;;;;;;;16.50;10.68;;;17.20;99.90;;;;;;4949371;28;20031;-76
2023/09/14 03:49:28;;;;;;;15.65;10.23;;;17.20;99.90;;;;;;4962436;28;20050;-76
2023/09/14 03:51:54;;;;;;;13.27;8.98;;;17.20;99.90;;;;;;4951184;28;20439;-75
2023/09/14 03:54:19;;;;;;;14.57;9.70;;;17.20;99.90;;;;;;4949786;28;20091;-76
2023/09/14 03:56:45;;;;;;;14.52;9.63;;;17.20;99.90;;;;;;4953379;28;20041;-74
2023/09/14 03:59:11;;;;;;;15.43;9.15;;;17.20;99.90;;;;;;4947032;28;20063;-76
2023/09/14 04:01:36;;;;;;;12.43;8.63;;;17.20;99.90;;;;;;4949054;28;20178;-76
2023/09/14 04:04:02;;;;;;;13.30;8.98;;;17.30;99.90;;;;;;4949879;28;20452;-76
2023/09/14 04:06:28;;;;;;;12.38;8.82;;;17.30;99.90;;;;;;4941606;28;20042;-76
2023/09/14 04:08:53;;;;;;;14.30;8.43;;;17.30;99.90;;;;;;4944994;28;20058;-77
2023/09/14 04:11:19;;;;;;;11.68;8.10;;;17.30;99.90;;;;;;4948343;28;20134;-76
2023/09/14 04:13:44;;;;;;;11.25;8.32;;;17.30;99.90;;;;;;4941553;28;20027;-75
2023/09/14 04:16:12;;;;;;;13.00;9.00;;;17.30;99.90;;;;;;4949081;28;20043;-76
2023/09/14 04:18:38;;;;;;;13.13;8.80;;;17.30;99.90;;;;;;4945579;28;20987;-76
2023/09/14 04:21:05;;;;;;;13.18;9.13;;;17.30;99.90;;;;;;4952448;28;20929;-76
2023/09/14 04:23:31;;;;;;;13.90;9.50;;;17.30;99.90;;;;;;4949892;28;20035;-76
2023/09/14 04:25:56;;;;;;;13.82;8.93;;;17.40;99.90;;;;;;4952447;28;20445;-76
2023/09/14 04:28:22;;;;;;;13.48;8.73;;;17.30;99.90;;;;;;4949382;28;20509;-75
2023/09/14 04:30:52;;;;;;;16.27;9.02;;;17.30;99.90;;;;;;4953677;28;20035;-75
2023/09/14 04:33:18;;;;;;;17.40;10.15;;;17.30;99.90;;;;;;4951566;28;20114;-76
2023/09/14 04:35:44;;;;;;;16.65;10.00;;;17.30;99.90;;;;;;4953345;28;20034;-75
2023/09/14 04:38:10;;;;;;;14.25;9.75;;;17.30;99.90;;;;;;4951827;28;20039;-76
2023/09/14 04:40:40;;;;;;;15.55;9.65;;;17.30;99.90;;;;;;4952516;28;20167;-76
2023/09/14 04:43:08;;;;;;;16.77;9.80;;;17.30;99.90;;;;;;4951821;28;20039;-76
2023/09/14 04:45:34;;;;;;;14.80;8.93;;;17.30;99.90;;;;;;4967613;28;20023;-76
2023/09/14 04:48:00;;;;;;;15.25;9.98;;;17.30;99.90;;;;;;4965661;28;20039;-76
2023/09/14 04:50:26;;;;;;;14.25;9.55;;;17.30;99.90;;;;;;4951393;28;20031;-76
2023/09/14 04:52:52;;;;;;;15.65;10.02;;;17.30;99.90;;;;;;4953731;28;20033;-76
2023/09/14 04:55:18;;;;;;;18.35;10.90;;;17.30;99.90;;;;;;4951725;28;20110;-76
2023/09/14 04:57:43;;;;;;;16.33;10.60;;;17.30;99.90;;;;;;4966276;28;20081;-76
2023/09/14 05:00:09;;;;;;;19.17;10.50;;;17.30;99.90;;;;;;4952748;28;20031;-76
2023/09/14 05:02:36;;;;;;;17.17;11.07;;;17.30;99.90;;;;;;4956058;28;20103;-75
2023/09/14 05:05:06;;;;;;;14.93;9.85;;;17.30;99.90;;;;;;4955543;28;20446;-75
2023/09/14 05:07:32;;;;;;;15.73;10.02;;;17.30;99.90;;;;;;4970301;28;20078;-77
2023/09/14 05:09:57;;;;;;;15.30;9.82;;;17.30;99.90;;;;;;4961518;28;20034;-73
2023/09/14 05:12:23;;;;;;;16.83;9.90;;;17.40;99.90;;;;;;4954915;28;20611;-74
2023/09/14 05:14:49;;;;;;;16.48;10.18;;;17.30;99.90;;;;;;4958223;28;20490;-73
2023/09/14 05:17:14;;;;;;;15.73;10.05;;;17.40;99.90;;;;;;4951968;28;20035;-74
2023/09/14 05:19:42;;;;;;;15.90;11.02;;;17.40;99.90;;;;;;4953120;28;20046;-74
2023/09/14 05:22:11;;;;;;;16.83;10.35;;;17.40;99.90;;;;;;4957506;28;20990;-74
2023/09/14 05:24:39;;;;;;;16.80;12.00;;;17.50;99.90;;;;;;4953262;28;20081;-75
2023/09/14 05:27:05;;;;;;;20.55;12.68;;;17.50;99.90;;;;;;4953424;28;20023;-76
2023/09/14 05:29:31;;;;;;;18.73;11.35;;;17.50;99.90;;;;;;4951884;28;20028;-75
2023/09/14 05:31:57;;;;;;;16.88;10.60;;;17.50;99.90;;;;;;4964461;28;20102;-75
2023/09/14 05:34:23;;;;;;;15.77;11.02;;;17.50;99.90;;;;;;4960880;28;20038;-72
2023/09/14 05:36:49;;;;;;;16.38;11.55;;;17.50;99.90;;;;;;4954320;28;20035;-72
2023/09/14 05:39:15;;;;;;;17.48;11.45;;;17.50;99.90;;;;;;4952506;28;20027;-74
2023/09/14 05:41:41;;;;;;;16.83;10.07;;;17.60;99.90;;;;;;4953613;28;20450;-73
2023/09/14 05:44:10;;;;;;;15.88;10.23;;;17.60;99.90;;;;;;4966793;28;20031;-73
2023/09/14 05:46:36;;;;;;;16.23;10.50;;;17.60;99.90;;;;;;4955351;28;20043;-75
2023/09/14 05:49:02;;;;;;;16.48;10.48;;;17.50;99.90;;;;;;4954740;28;20490;-74
2023/09/14 05:51:28;;;;;;;19.73;10.85;;;17.60;99.90;;;;;;4953932;28;20030;-74
2023/09/14 05:53:54;;;;;;;14.20;9.60;;;17.50;99.90;;;;;;4967956;28;20027;-74
2023/09/14 05:56:20;;;;;;;13.40;9.75;;;17.50;99.90;;;;;;4950037;28;20027;-75
2023/09/14 05:58:46;;;;;;;18.88;11.05;;;17.60;99.90;;;;;;4955612;28;20045;-74
2023/09/14 06:01:11;;;;;;;16.73;10.68;;;17.60;99.90;;;;;;4952674;28;20039;-74
2023/09/14 06:03:37;;;;;;;16.30;9.82;;;17.60;99.90;;;;;;4953360;28;20031;-74
2023/09/14 06:06:03;;;;;;;16.58;10.15;;;17.60;99.90;;;;;;4951365;28;20024;-73
2023/09/14 06:08:28;;;;;;;15.68;10.93;;;17.60;99.90;;;;;;4956710;28;20027;-74
2023/09/14 06:10:54;;;;;;;15.77;10.52;;;17.60;99.90;;;;;;4968557;28;20387;-74
2023/09/14 06:13:20;;;;;;;14.77;10.65;;;17.60;99.90;;;;;;4947493;28;20058;-74
2023/09/14 06:15:46;;;;;;;16.38;10.40;;;17.60;99.90;;;;;;4954217;28;20035;-74
2023/09/14 06:18:12;;;;;;;16.65;10.45;;;17.60;99.90;;;;;;4952335;28;20042;-74
2023/09/14 06:20:38;;;;;;;13.85;9.70;;;17.70;99.90;;;;;;4951209;28;20083;-73
2023/09/14 06:23:03;;;;;;;14.77;10.88;;;17.70;99.90;;;;;;4970437;28;20023;-73
2023/09/14 06:25:29;;;;;;;17.75;10.65;;;17.70;99.90;;;;;;4953800;28;20517;-73
2023/09/14 06:27:55;;;;;;;15.50;11.00;;;17.70;99.90;;;;;;4972231;28;20111;-74
2023/09/14 06:30:20;;;;;;;17.42;11.07;;;17.70;99.90;;;;;;4954001;28;20054;-73
2023/09/14 06:32:46;;;;;;;18.55;11.10;;;17.70;99.90;;;;;;4955710;28;20026;-74
2023/09/14 06:35:11;;;;;;;16.05;9.75;;;17.70;99.90;;;;;;4954845;28;20027;-74
2023/09/14 06:37:37;;;;;;;16.85;11.43;;;17.70;99.90;;;;;;4953237;28;20405;-74
2023/09/14 06:40:06;;;;;;;18.10;10.68;;;17.60;99.90;;;;;;4954384;28;20071;-75
2023/09/14 06:42:31;;;;;;;20.40;12.50;;;17.60;99.90;;;;;;4953418;28;20110;-75
2023/09/14 06:44:57;;;;;;;19.77;12.15;;;17.60;99.90;;;;;;4952994;28;20129;-74
2023/09/14 06:47:23;;;;;;;17.25;10.23;;;17.70;99.90;;;;;;4952083;28;20414;-74
2023/09/14 06:49:49;;;;;;;19.42;11.80;;;17.60;99.90;;;;;;4951531;28;20065;-75
2023/09/14 06:52:14;;;;;;;15.77;10.13;;;17.60;99.90;;;;;;4953922;28;20062;-74
2023/09/14 06:54:40;;;;;;;15.70;10.88;;;17.60;99.90;;;;;;4951622;28;20038;-74
2023/09/14 06:57:05;;;;;;;15.80;10.95;;;17.60;99.90;;;;;;4951889;28;20147;-74
2023/09/14 06:59:31;;;;;;;16.25;10.30;;;17.60;99.90;;;;;;4951768;28;20042;-75
2023/09/14 07:01:57;;;;;;;16.02;10.25;;;17.50;99.90;;;;;;4968097;28;20086;-74
2023/09/14 07:04:22;;;;;;;15.32;10.60;;;17.50;99.90;;;;;;4950820;28;20152;-75
2023/09/14 07:06:49;;;;;;;15.68;9.45;;;17.50;99.90;;;;;;4953614;28;20631;-75
2023/09/14 07:09:15;;;;;;;16.77;10.85;;;17.60;99.90;;;;;;4969552;28;20133;-75
2023/09/14 07:11:41;;;;;;;15.32;9.98;;;17.60;99.90;;;;;;4953107;28;20027;-76
2023/09/14 07:14:06;;;;;;;16.48;10.63;;;17.60;99.90;;;;;;4951093;28;20042;-77
2023/09/14 07:16:32;;;;;;;14.90;10.70;;;17.60;99.90;;;;;;4953014;28;20035;-75
2023/09/14 07:18:59;;;;;;;16.10;10.35;;;17.60;99.90;;;;;;4954656;28;20031;-75
2023/09/14 07:21:26;;;;;;;17.30;11.57;;;17.60;99.90;;;;;;4950307;28;20066;-74
2023/09/14 07:23:52;;;;;;;17.67;11.50;;;17.60;99.90;;;;;;4951509;28;20023;-76
2023/09/14 07:26:17;;;;;;;14.25;10.60;;;17.60;99.90;;;;;;4956098;28;20050;-76
2023/09/14 07:28:43;;;;;;;13.80;9.60;;;17.60;99.90;;;;;;4952971;28;20114;-75
2023/09/14 07:31:09;;;;;;;16.50;10.38;;;17.60;99.90;;;;;;4954365;28;20089;-74
2023/09/14 07:33:34;;;;;;;18.20;10.60;;;17.60;99.90;;;;;;4953825;28;20027;-74
2023/09/14 07:36:00;;;;;;;18.33;11.48;;;17.70;99.90;;;;;;4958066;28;20023;-75
2023/09/14 07:38:26;;;;;;;17.15;11.02;;;17.60;99.90;;;;;;4958698;28;20069;-75
2023/09/14 07:40:51;;;;;;;19.48;12.13;;;17.60;99.90;;;;;;4957563;28;20031;-74
2023/09/14 07:43:17;;;;;;;20.33;11.40;;;17.70;99.90;;;;;;4958564;28;20035;-74
2023/09/14 07:45:43;;;;;;;14.20;9.80;;;17.70;99.90;;;;;;4959840;28;20546;-74
2023/09/14 07:48:09;;;;;;;15.40;10.63;;;17.70;99.90;;;;;;4954490;28;20020;-75
2023/09/14 07:50:38;;;;;;;16.02;9.57;;;17.70;99.90;;;;;;4953349;28;20034;-76
2023/09/14 07:53:05;;;;;;;16.38;9.73;;;17.70;99.90;;;;;;4951163;28;20031;-75
2023/09/14 07:55:31;;;;;;;17.33;10.82;;;17.70;99.90;;;;;;4952618;28;20027;-75
2023/09/14 07:57:57;;;;;;;15.73;10.05;;;17.70;99.90;;;;;;4953379;28;20022;-75
2023/09/14 08:00:22;;;;;;;15.23;10.18;;;17.80;99.90;;;;;;4969666;28;20031;-75
2023/09/14 08:02:48;;;;;;;16.75;9.50;;;17.80;99.90;;;;;;4963061;28;20037;-74
2023/09/14 08:05:13;;;;;;;18.55;11.30;;;17.80;99.90;;;;;;4952777;28;20537;-75
2023/09/14 08:07:39;;;;;;;18.08;10.18;;;17.90;99.90;;;;;;4953541;28;20023;-75
2023/09/14 08:10:05;;;;;;;16.50;9.43;;;17.90;99.90;;;;;;4952631;28;20062;-76
2023/09/14 08:12:31;;;;;;;17.17;10.20;;;17.90;99.90;;;;;;4945129;28;20102;-75
2023/09/14 08:14:57;;;;;;;18.92;11.20;;;17.90;99.90;;;;;;4952424;28;20110;-75
2023/09/14 08:17:23;;;;;;;15.43;10.48;;;17.90;99.90;;;;;;4953425;28;20490;-74
2023/09/14 08:19:48;;;;;;;16.08;10.63;;;18.00;99.90;;;;;;4951143;28;20031;-75
2023/09/14 08:22:14;;;;;;;15.38;9.60;;;18.00;99.90;;;;;;4949706;28;20038;-75
2023/09/14 08:24:41;;;;;;;14.32;8.90;;;18.00;99.90;;;;;;4966261;28;20074;-74
2023/09/14 08:27:06;;;;;;;15.38;10.23;;;18.00;99.90;;;;;;4969462;28;20106;-75
2023/09/14 08:29:32;;;;;;;14.90;9.23;;;18.10;99.90;;;;;;4950860;28;20023;-74
2023/09/14 08:31:57;;;;;;;14.80;9.32;;;18.10;99.90;;;;;;4955084;28;20028;-74
2023/09/14 08:34:23;;;;;;;15.52;9.85;;;18.20;99.90;;;;;;4948907;28;20057;-75
2023/09/14 08:36:49;;;;;;;13.38;8.93;;;18.30;99.90;;;;;;4953626;28;20159;-74
2023/09/14 08:39:14;;;;;;;12.18;9.10;;;18.40;99.90;;;;;;4952559;28;20445;-73
2023/09/14 08:41:41;;;;;;;15.43;8.88;;;18.40;99.90;;;;;;4949276;28;20038;-74
2023/09/14 08:44:07;;;;;;;14.80;9.00;;;18.50;99.90;;;;;;4950821;28;20138;-74
2023/09/14 08:46:34;;;;;;;14.27;9.73;;;18.50;99.90;;;;;;4982496;23;20081;-75
2023/09/14 08:49:02;;;;;;;14.93;9.40;;;18.50;99.90;;;;;;4962119;28;20037;-75
2023/09/14 08:51:34;;;;;;;16.95;9.68;;;18.60;99.90;;;;;;4965123;28;20030;-75
2023/09/14 08:54:00;;;;;;;13.93;8.70;;;18.60;99.90;;;;;;4961373;28;20034;-75
2023/09/14 08:56:26;;;;;;;14.80;8.32;;;18.70;99.90;;;;;;4959738;28;20035;-75
2023/09/14 08:58:54;;;;;;;14.35;8.63;;;18.70;99.90;;;;;;4948571;28;20042;-74
2023/09/14 09:01:20;;;;;;;12.48;7.50;;;18.80;99.90;;;;;;4941555;28;20030;-75
2023/09/14 09:03:45;;;;;;;12.68;8.38;;;18.90;99.90;;;;;;4940521;28;20042;-75
2023/09/14 09:06:11;;;;;;;11.40;7.40;;;19.00;99.90;;;;;;4942877;28;20035;-75
2023/09/14 09:08:38;;;;;;;10.13;7.18;;;19.00;99.90;;;;;;4942511;28;20027;-75
2023/09/14 09:11:04;;;;;;;10.25;7.95;;;19.00;99.90;;;;;;4945970;28;20035;-74
2023/09/14 09:13:34;;;;;;;10.15;6.68;;;19.10;99.90;;;;;;4957158;28;20031;-75
2023/09/14 09:16:00;;;;;;;13.52;7.97;;;19.20;99.90;;;;;;4944333;28;20483;-75
2023/09/14 09:18:26;;;;;;;11.20;6.88;;;19.20;99.90;;;;;;4942725;28;20034;-75
2023/09/14 09:20:52;;;;;;;12.40;7.43;;;19.40;99.90;;;;;;4950830;28;20428;-75
2023/09/14 09:23:20;;;;;;;11.48;7.18;;;19.50;99.90;;;;;;4947745;28;20028;-75
2023/09/14 09:25:47;;;;;;;13.73;8.70;;;19.50;99.90;;;;;;4943921;28;20043;-75
2023/09/14 09:28:14;;;;;;;14.15;8.70;;;19.50;99.90;;;;;;4945575;28;20127;-75
2023/09/14 09:30:40;;;;;;;12.93;7.50;;;19.50;99.90;;;;;;4946554;28;20535;-75
2023/09/14 09:33:05;;;;;;;11.98;7.75;;;19.60;99.90;;;;;;4945858;28;20039;-75
2023/09/14 09:35:31;;;;;;;11.80;7.20;;;19.60;99.90;;;;;;4961676;28;20020;-75
2023/09/14 09:37:58;;;;;;;10.57;7.40;;;19.60;99.90;;;;;;4960706;28;20107;-75
2023/09/14 09:40:31;;;;;;;11.52;8.02;;;19.60;99.90;;;;;;4960900;28;20035;-75
2023/09/14 09:43:03;;;;;;;13.30;7.80;;;19.70;99.90;;;;;;4958167;28;20027;-75
2023/09/14 09:45:29;;;;;;;10.68;6.38;;;19.70;99.90;;;;;;4946251;28;20034;-75
2023/09/14 09:47:55;;;;;;;11.30;7.05;;;19.70;99.90;;;;;;4947799;28;20023;-75
2023/09/14 09:50:22;;;;;;;13.15;6.78;;;19.70;99.90;;;;;;4950054;28;20102;-75
2023/09/14 09:52:48;;;;;;;9.63;7.05;;;19.60;99.90;;;;;;4951955;28;20027;-75
2023/09/14 09:55:25;;;;;;;9.48;7.05;;;19.70;99.90;;;;;;4948207;28;20043;-75
2023/09/14 09:57:53;;;;;;;11.75;6.85;;;19.70;99.90;;;;;;4947782;28;20031;-75
2023/09/14 10:00:20;;;;;;;10.43;7.97;;;19.80;99.90;;;;;;4952193;28;20127;-75
2023/09/14 10:02:47;;;;;;;12.13;7.20;;;19.80;99.90;;;;;;4947642;28;20493;-75
2023/09/14 10:05:14;;;;;;;10.35;7.22;;;19.80;99.90;;;;;;4950421;28;20584;-75
2023/09/14 10:07:40;;;;;;;11.23;7.07;;;19.80;99.90;;;;;;4956102;28;20513;-75
2023/09/14 10:10:10;;;;;;;11.05;7.05;;;19.80;99.90;;;;;;4943451;28;20090;-75
2023/09/14 10:12:41;;;;;;;9.13;6.47;;;19.80;99.90;;;;;;4947390;28;20114;-74
2023/09/14 10:15:08;;;;;;;9.63;6.20;;;19.80;99.90;;;;;;4943407;28;20389;-75
2023/09/14 10:17:34;;;;;;;9.25;5.80;;;19.80;99.90;;;;;;4944986;28;20032;-75
2023/09/14 10:20:05;;;;;;;7.05;5.45;;;19.90;99.90;;;;;;4942780;28;20099;-75
2023/09/14 10:22:32;;;;;;;9.52;5.70;;;19.90;99.90;;;;;;4941187;28;20106;-76
2023/09/14 10:24:58;;;;;;;9.95;6.22;;;20.00;99.90;;;;;;4947157;28;20039;-75
2023/09/14 10:27:29;;;;;;;10.10;6.43;;;20.00;99.90;;;;;;4947812;28;20042;-75
2023/09/14 10:29:56;;;;;;;8.73;6.78;;;20.00;99.90;;;;;;4943843;28;20177;-75
2023/09/14 10:32:23;;;;;;;8.75;6.25;;;19.90;99.90;;;;;;4946942;28;20501;-75
2023/09/14 10:34:50;;;;;;;10.10;6.40;;;19.90;99.90;;;;;;4966926;28;20162;-75
2023/09/14 10:37:20;;;;;;;8.25;5.63;;;19.90;99.90;;;;;;4944617;28;20505;-75
2023/09/14 10:39:46;;;;;;;8.57;6.03;;;19.90;99.90;;;;;;4947308;28;20023;-76
2023/09/14 10:42:11;;;;;;;9.55;6.13;;;20.00;99.90;;;;;;4948102;28;20106;-76
2023/09/14 10:44:37;;;;;;;8.23;5.32;;;20.00;99.90;;;;;;4947103;28;20077;-75
2023/09/14 10:47:05;;;;;;;9.10;5.55;;;20.00;99.90;;;;;;4951135;28;20106;-76
2023/09/14 10:49:35;;;;;;;15.13;7.63;;;20.10;99.90;;;;;;4947423;28;20031;-75
2023/09/14 10:52:02;;;;;;;11.85;6.30;;;20.00;99.90;;;;;;4948684;28;20031;-75
2023/09/14 10:54:29;;;;;;;10.43;6.70;;;20.00;99.90;;;;;;4948850;28;20027;-75
2023/09/14 10:57:00;;;;;;;9.35;6.35;;;20.00;99.90;;;;;;4950169;28;20027;-75
2023/09/14 10:59:51;;;;;;;9.05;5.43;;;20.00;99.90;;;;;;4955698;28;20031;-76
2023/09/14 11:02:43;;;;;;;9.75;5.45;;;20.00;99.90;;;;;;4948165;28;21474;-76
2023/09/14 11:05:26;;;;;;;7.65;5.20;;;20.00;99.90;;;;;;4948596;28;20390;-76
2023/09/14 11:07:55;;;;;;;7.63;5.65;;;20.10;99.90;;;;;;4948336;28;20035;-76
2023/09/14 11:10:22;;;;;;;7.43;5.07;;;20.10;99.90;;;;;;4953959;28;20126;-76
2023/09/14 11:12:49;;;;;;;7.65;5.43;;;20.10;99.90;;;;;;4945073;28;20366;-76
2023/09/14 11:15:22;;;;;;;5.82;4.43;;;20.10;99.90;;;;;;4938550;28;20472;-74
2023/09/14 11:17:52;;;;;;;10.38;6.00;;;20.10;99.90;;;;;;4947141;28;20481;-75
2023/09/14 11:20:24;;;;;;;9.68;4.80;;;20.10;99.90;;;;;;4944363;28;20046;-74
2023/09/14 11:22:51;;;;;;;7.15;4.63;;;20.20;99.90;;;;;;4947125;28;20027;-74
2023/09/14 11:25:27;;;;;;;5.93;4.10;;;20.20;99.90;;;;;;4946410;28;20039;-74
2023/09/14 11:27:52;;;;;;;6.13;4.47;;;20.30;99.90;;;;;;4958831;28;20591;-74
2023/09/14 11:30:20;;;;;;;6.05;3.85;;;20.30;99.90;;;;;;4950309;28;20110;-73
2023/09/14 11:32:47;;;;;;;11.23;4.70;;;20.30;99.90;;;;;;4941694;28;20035;-74
2023/09/14 11:35:13;;;;;;;6.20;3.83;;;20.40;99.90;;;;;;4950168;28;20031;-74
2023/09/14 11:37:42;;;;;;;6.63;4.68;;;20.40;99.90;;;;;;4946375;28;20466;-74
2023/09/14 11:40:17;;;;;;;5.68;3.75;;;20.40;99.90;;;;;;4963690;28;20023;-74
2023/09/14 11:43:07;;;;;;;6.60;3.50;;;20.50;99.90;;;;;;4945548;28;20627;-74
2023/09/14 11:45:41;;;;;;;8.73;4.20;;;20.50;99.90;;;;;;4949928;28;20453;-74
2023/09/14 11:48:08;;;;;;;6.18;3.95;;;20.50;99.90;;;;;;4950697;28;20031;-74
2023/09/14 11:50:34;;;;;;;7.57;4.00;;;20.50;99.90;;;;;;4947275;28;20038;-74
2023/09/14 11:53:00;;;;;;;5.10;3.40;;;20.60;99.90;;;;;;4939117;28;20031;-74
2023/09/14 11:55:26;;;;;;;7.57;3.92;;;20.60;99.90;;;;;;4962250;28;20114;-74
2023/09/14 11:57:52;;;;;;;5.57;4.00;;;20.60;99.90;;;;;;4946378;28;20051;-73
2023/09/14 12:00:21;;;;;;;6.53;4.00;;;20.60;99.90;;;;;;4945853;28;20509;-75
2023/09/14 12:02:48;;;;;;;6.82;4.38;;;20.60;99.90;;;;;;4960097;28;20066;-74
2023/09/14 12:05:14;;;;;;;5.10;3.92;;;20.70;99.90;;;;;;4951232;28;20110;-74
2023/09/14 12:07:40;;;;;;;6.72;3.67;;;20.70;99.90;;;;;;4951215;28;20390;-75
2023/09/14 12:10:21;;;;;;;4.53;3.30;;;20.80;99.90;;;;;;4946904;28;20035;-75
2023/09/14 12:12:47;;;;;;;5.35;3.22;;;20.80;99.90;;;;;;4939704;28;20024;-76
2023/09/14 12:15:19;;;;;;;6.05;3.40;;;20.80;99.90;;;;;;4944176;28;20524;-74
2023/09/14 12:17:52;;;;;;;4.47;3.05;;;20.80;99.90;;;;;;4959069;28;20023;-75
2023/09/14 12:20:19;;;;;;;5.82;3.30;;;20.80;99.90;;;;;;4949812;28;20038;-75
2023/09/14 12:22:47;;;;;;;6.88;2.63;;;20.80;99.90;;;;;;4948639;28;20035;-75
2023/09/14 12:25:17;;;;;;;2.67;2.13;;;20.80;99.90;;;;;;4961054;28;20481;-74
2023/09/14 12:27:44;;;;;;;3.35;2.22;;;20.90;99.90;;;;;;4952394;28;20090;-75
2023/09/14 12:30:10;;;;;;;3.67;2.05;;;20.90;99.90;;;;;;4945844;28;20494;-75
2023/09/14 12:32:40;;;;;;;4.72;2.60;;;20.90;99.90;;;;;;4962585;28;20023;-74
2023/09/14 12:35:07;;;;;;;4.07;2.40;;;20.90;99.90;;;;;;4951026;28;20051;-74
2023/09/14 12:37:33;;;;;;;6.07;3.25;;;21.00;99.90;;;;;;4949676;28;20035;-74